Time;durP1;ratioP1;P1;durP2;ratioP2;P2;SDS_P1;SDS_P2;PMS_P1;PMS_P2;Temp;Humidity;BMP_temperature;BMP_pressure;BME280_temperature;BME280_humidity;BME280_pressure;Samples;Min_cycle;Max_cycle;Signal;HPM_P1;HPM_P2
2020/12/12 00:02:05;;;;;;;11.27;8.48;;;15.30;52.00;;;;;;5109455;27;20032;-79
2020/12/12 00:04:31;;;;;;;10.45;7.93;;;15.30;52.00;;;;;;5096721;28;20329;-79
2020/12/12 00:07:16;;;;;;;9.00;7.30;;;15.30;52.00;;;;;;5097384;28;20048;-80
2020/12/12 00:09:42;;;;;;;10.40;8.02;;;15.30;52.10;;;;;;5096773;28;20330;-79
2020/12/12 00:12:28;;;;;;;10.02;8.30;;;15.30;52.00;;;;;;5115730;27;20451;-81
2020/12/12 00:14:54;;;;;;;11.27;8.70;;;15.30;52.10;;;;;;5137696;27;20095;-79
2020/12/12 00:17:20;;;;;;;10.50;8.00;;;15.30;52.10;;;;;;5138744;27;20051;-80
2020/12/12 00:20:05;;;;;;;11.05;8.38;;;15.30;52.10;;;;;;5123938;27;20042;-80
2020/12/12 00:22:31;;;;;;;10.23;7.97;;;15.20;52.00;;;;;;5106983;28;20099;-81
2020/12/12 00:25:17;;;;;;;10.82;8.18;;;15.20;52.10;;;;;;5103046;28;20138;-81
2020/12/12 00:27:43;;;;;;;11.20;8.57;;;15.20;52.10;;;;;;5118068;28;20118;-81
2020/12/12 00:30:28;;;;;;;9.95;8.23;;;15.20;52.10;;;;;;5088857;28;20101;-80
2020/12/12 00:32:54;;;;;;;10.95;8.93;;;15.20;52.10;;;;;;5133440;27;20039;-81
2020/12/12 00:35:20;;;;;;;11.43;9.02;;;15.20;52.10;;;;;;5105968;27;20035;-81
2020/12/12 00:38:06;;;;;;;11.80;8.27;;;15.20;52.00;;;;;;5096734;28;20056;-80
2020/12/12 00:40:32;;;;;;;10.70;9.00;;;15.10;52.00;;;;;;5096719;28;20440;-79
2020/12/12 00:43:17;;;;;;;13.38;9.52;;;15.20;52.10;;;;;;5121435;27;20039;-81
2020/12/12 00:45:48;;;;;;;9.30;7.72;;;15.20;52.10;;;;;;5155848;27;20112;-81
2020/12/12 00:48:34;;;;;;;10.15;8.27;;;15.20;52.70;;;;;;5143465;27;20458;-79
2020/12/12 00:51:00;;;;;;;10.63;8.20;;;15.10;52.10;;;;;;5140703;27;20035;-80
2020/12/12 00:53:26;;;;;;;10.70;8.15;;;15.10;52.00;;;;;;5156854;27;20427;-79
2020/12/12 00:55:55;;;;;;;10.30;8.20;;;15.10;52.00;;;;;;5127954;27;20049;-81
2020/12/12 00:58:22;;;;;;;9.57;7.97;;;15.10;52.00;;;;;;5117925;28;20113;-80
2020/12/12 01:00:48;;;;;;;10.70;8.68;;;15.10;52.00;;;;;;5117475;28;20086;-80
2020/12/12 01:03:39;;;;;;;10.02;8.38;;;15.10;52.00;;;;;;5102229;28;20046;-81
2020/12/12 01:06:11;;;;;;;9.57;8.35;;;15.10;52.00;;;;;;5116996;28;20031;-79
2020/12/12 01:08:38;;;;;;;11.05;8.55;;;15.10;52.00;;;;;;5117163;28;20043;-81
2020/12/12 01:11:06;;;;;;;12.45;9.35;;;15.10;52.00;;;;;;5116959;28;20127;-80
2020/12/12 01:13:51;;;;;;;10.13;7.65;;;15.10;51.90;;;;;;5116615;27;20068;-81
2020/12/12 01:16:37;;;;;;;10.15;7.95;;;15.10;51.90;;;;;;5142868;27;20434;-80
2020/12/12 01:19:03;;;;;;;10.13;8.23;;;15.10;52.00;;;;;;5157584;27;20046;-80
2020/12/12 01:21:29;;;;;;;11.25;8.40;;;15.00;51.90;;;;;;5152252;27;20038;-79
2020/12/12 01:23:54;;;;;;;11.10;8.52;;;15.00;51.90;;;;;;5116774;28;20432;-80
2020/12/12 01:26:20;;;;;;;11.07;8.32;;;15.00;52.00;;;;;;5100259;28;20027;-80
2020/12/12 01:28:46;;;;;;;10.23;8.40;;;15.00;52.00;;;;;;5116382;28;20042;-79
2020/12/12 01:31:13;;;;;;;11.00;8.27;;;15.00;52.00;;;;;;5116713;27;20108;-81
2020/12/12 01:33:40;;;;;;;10.25;8.43;;;15.00;52.00;;;;;;5107623;27;20038;-81
2020/12/12 01:36:07;;;;;;;11.18;8.13;;;15.00;52.00;;;;;;5157403;27;20062;-81
2020/12/12 01:38:34;;;;;;;10.65;8.00;;;15.00;52.00;;;;;;5157972;27;20035;-79
2020/12/12 01:41:20;;;;;;;11.50;8.27;;;15.00;52.00;;;;;;5140988;27;20035;-82
2020/12/12 01:43:50;;;;;;;11.90;8.85;;;15.00;52.00;;;;;;5116165;28;20043;-79
2020/12/12 01:46:37;;;;;;;10.98;8.18;;;15.00;52.00;;;;;;5101399;28;20039;-79
2020/12/12 01:49:22;;;;;;;10.90;8.98;;;15.00;52.10;;;;;;5101613;28;20112;-81
2020/12/12 01:52:08;;;;;;;10.43;7.88;;;14.90;52.00;;;;;;5108623;27;20081;-80
2020/12/12 01:54:34;;;;;;;11.10;8.70;;;14.90;52.00;;;;;;5135996;27;20079;-79
2020/12/12 01:57:22;;;;;;;10.68;8.38;;;14.90;52.00;;;;;;5121762;27;20046;-81
2020/12/12 01:59:49;;;;;;;11.52;8.52;;;14.90;52.00;;;;;;5136555;27;20070;-81
2020/12/12 02:02:16;;;;;;;10.95;9.27;;;14.90;52.00;;;;;;5109949;28;20114;-79
2020/12/12 02:04:57;;;;;;;10.80;8.70;;;14.90;52.00;;;;;;5112088;28;20040;-80
2020/12/12 02:07:23;;;;;;;10.15;7.90;;;14.90;52.00;;;;;;5095545;28;20050;-81
2020/12/12 02:09:50;;;;;;;10.63;8.20;;;14.90;52.00;;;;;;5098155;27;20044;-80
2020/12/12 02:12:35;;;;;;;10.80;8.23;;;14.90;52.00;;;;;;5095077;28;20036;-80
2020/12/12 02:15:01;;;;;;;10.80;8.82;;;14.90;52.10;;;;;;5095523;28;20336;-80
2020/12/12 02:17:47;;;;;;;11.85;9.10;;;14.90;52.00;;;;;;5094847;28;20047;-79
2020/12/12 02:20:33;;;;;;;9.75;8.63;;;14.90;52.10;;;;;;5093299;27;20043;-79
2020/12/12 02:22:59;;;;;;;11.38;8.65;;;14.90;52.10;;;;;;5100705;27;20054;-79
2020/12/12 02:25:26;;;;;;;10.55;8.63;;;14.90;52.10;;;;;;5094457;28;20062;-79
2020/12/12 02:27:55;;;;;;;11.30;8.77;;;14.80;52.00;;;;;;5095457;28;20403;-80
2020/12/12 02:30:41;;;;;;;10.25;8.32;;;14.80;52.00;;;;;;5080133;28;20044;-80
2020/12/12 02:33:27;;;;;;;11.20;9.05;;;14.90;52.10;;;;;;5080474;28;20044;-80
2020/12/12 02:35:56;;;;;;;10.73;8.25;;;14.80;52.00;;;;;;5077857;28;20039;-79
2020/12/12 02:38:21;;;;;;;11.43;9.23;;;14.80;52.00;;;;;;5095958;28;20032;-81
2020/12/12 02:40:47;;;;;;;10.88;9.05;;;14.80;52.00;;;;;;5095996;28;20324;-82
2020/12/12 02:43:13;;;;;;;10.63;8.70;;;14.80;52.00;;;;;;5097364;28;20103;-79
2020/12/12 02:45:59;;;;;;;11.00;9.00;;;14.80;52.00;;;;;;5114279;28;20040;-80
2020/12/12 02:48:25;;;;;;;9.82;8.32;;;14.80;52.00;;;;;;5118778;28;20095;-80
2020/12/12 02:50:50;;;;;;;11.23;8.93;;;14.80;52.00;;;;;;5136399;28;20038;-79
2020/12/12 02:53:16;;;;;;;11.20;8.60;;;14.80;52.00;;;;;;5136106;28;20122;-80
2020/12/12 02:56:02;;;;;;;11.93;8.95;;;14.80;52.00;;;;;;5135347;28;20039;-79
2020/12/12 02:58:48;;;;;;;11.27;8.82;;;14.70;52.00;;;;;;5116068;28;20035;-82
2020/12/12 03:01:14;;;;;;;10.85;8.85;;;14.80;52.00;;;;;;5135741;28;20092;-80
2020/12/12 03:03:40;;;;;;;10.60;8.43;;;14.70;52.00;;;;;;5135944;28;20432;-79
2020/12/12 03:06:06;;;;;;;10.00;8.57;;;14.70;52.00;;;;;;5135885;28;20039;-81
2020/12/12 03:08:31;;;;;;;10.05;8.45;;;14.70;52.00;;;;;;5131430;28;20027;-79
2020/12/12 03:10:58;;;;;;;11.82;8.57;;;14.70;51.90;;;;;;5114151;28;20104;-79
2020/12/12 03:13:23;;;;;;;11.00;8.95;;;14.70;51.90;;;;;;5115133;28;20032;-81
2020/12/12 03:16:09;;;;;;;11.98;8.93;;;14.80;52.00;;;;;;5114596;28;20039;-79
2020/12/12 03:18:35;;;;;;;11.93;9.05;;;14.70;52.00;;;;;;5118835;28;20027;-80
2020/12/12 03:21:01;;;;;;;11.10;9.27;;;14.70;52.00;;;;;;5135172;28;20027;-82
2020/12/12 03:23:29;;;;;;;11.57;9.48;;;14.70;52.00;;;;;;5115960;28;20122;-81
2020/12/12 03:26:15;;;;;;;11.70;9.02;;;14.70;52.00;;;;;;5100560;28;20047;-79
2020/12/12 03:28:41;;;;;;;11.60;8.70;;;14.70;52.00;;;;;;5119947;28;20031;-80
2020/12/12 03:31:06;;;;;;;11.95;9.32;;;14.70;52.00;;;;;;5136005;28;20035;-80
2020/12/12 03:33:52;;;;;;;11.35;9.15;;;14.70;52.20;;;;;;5120801;28;20043;-81
2020/12/12 03:36:18;;;;;;;12.23;9.40;;;14.70;52.00;;;;;;5136271;28;20050;-81
2020/12/12 03:39:04;;;;;;;10.65;8.98;;;14.70;52.70;;;;;;5124339;28;20050;-79
2020/12/12 03:41:30;;;;;;;10.80;8.90;;;14.70;52.10;;;;;;5125536;27;20040;-82
2020/12/12 03:43:56;;;;;;;11.63;9.52;;;14.70;52.10;;;;;;5140182;27;20144;-79
2020/12/12 03:46:21;;;;;;;12.13;9.35;;;14.70;52.10;;;;;;5159960;27;20588;-80
2020/12/12 03:48:47;;;;;;;12.18;9.57;;;14.70;52.10;;;;;;5149786;27;20049;-80
2020/12/12 03:51:13;;;;;;;12.63;9.85;;;14.70;52.10;;;;;;5118780;27;20062;-80
2020/12/12 03:53:59;;;;;;;11.38;8.57;;;14.70;52.10;;;;;;5103993;28;20047;-80
2020/12/12 03:56:24;;;;;;;11.85;8.80;;;14.60;52.10;;;;;;5118332;28;20440;-80
2020/12/12 03:59:10;;;;;;;12.40;9.27;;;14.60;52.10;;;;;;5131412;27;20034;-80
2020/12/12 04:01:36;;;;;;;11.13;9.10;;;14.60;52.20;;;;;;5156856;27;20046;-81
2020/12/12 04:04:02;;;;;;;11.38;9.52;;;14.60;52.20;;;;;;5141449;27;20401;-80
2020/12/12 04:06:28;;;;;;;11.05;9.23;;;14.60;52.10;;;;;;5159858;27;20083;-80
2020/12/12 04:08:54;;;;;;;12.63;9.48;;;14.60;52.20;;;;;;5159616;27;20473;-79
2020/12/12 04:11:20;;;;;;;10.68;8.80;;;14.60;52.10;;;;;;5152464;27;20066;-80
2020/12/12 04:13:45;;;;;;;11.50;9.07;;;14.60;52.10;;;;;;5118486;28;20040;-79
2020/12/12 04:16:31;;;;;;;11.27;8.82;;;14.60;52.10;;;;;;5117347;28;20463;-80
2020/12/12 04:18:57;;;;;;;11.45;9.00;;;14.60;52.20;;;;;;5118313;28;20032;-79
2020/12/12 04:21:43;;;;;;;12.32;9.15;;;14.60;52.10;;;;;;5129276;27;20050;-80
2020/12/12 04:24:09;;;;;;;11.85;9.27;;;14.60;52.20;;;;;;5140536;27;20026;-79
2020/12/12 04:26:35;;;;;;;11.63;8.82;;;14.60;52.20;;;;;;5133341;27;20046;-79
2020/12/12 04:29:21;;;;;;;11.52;8.85;;;14.60;52.10;;;;;;5117451;28;20046;-80
2020/12/12 04:31:46;;;;;;;11.50;9.20;;;14.60;52.20;;;;;;5118045;28;20339;-79
2020/12/12 04:34:12;;;;;;;10.20;8.68;;;14.60;52.10;;;;;;5117568;28;20052;-79
2020/12/12 04:36:38;;;;;;;11.18;8.70;;;14.50;52.10;;;;;;5121784;27;20379;-79
2020/12/12 04:39:24;;;;;;;11.52;9.02;;;14.60;52.20;;;;;;5102936;27;20055;-80
2020/12/12 04:41:52;;;;;;;11.95;9.05;;;14.50;52.10;;;;;;5117925;28;20031;-80
2020/12/12 04:44:18;;;;;;;10.95;9.18;;;14.60;52.20;;;;;;5117293;28;20059;-80
2020/12/12 04:46:44;;;;;;;10.75;8.85;;;14.50;52.10;;;;;;5126589;27;20041;-81
2020/12/12 04:49:10;;;;;;;10.95;8.82;;;14.50;52.10;;;;;;5159394;27;20049;-79
2020/12/12 04:51:36;;;;;;;11.68;8.82;;;14.50;52.10;;;;;;5158339;27;20368;-79
2020/12/12 04:54:02;;;;;;;11.32;8.68;;;14.50;52.10;;;;;;5158905;27;20038;-80
2020/12/12 04:56:35;;;;;;;10.63;8.57;;;14.50;52.10;;;;;;5154825;27;20499;-81
2020/12/12 04:59:03;;;;;;;12.48;9.50;;;14.50;52.10;;;;;;5117211;28;20040;-81
2020/12/12 05:01:32;;;;;;;11.45;9.15;;;14.50;52.10;;;;;;5117245;27;20328;-81
2020/12/12 05:04:01;;;;;;;10.90;9.00;;;14.50;52.10;;;;;;5117218;28;20036;-81
2020/12/12 05:06:47;;;;;;;12.32;9.40;;;14.50;52.10;;;;;;5124113;27;20403;-81
2020/12/12 05:09:13;;;;;;;11.38;9.00;;;14.50;52.20;;;;;;5157759;27;20073;-80
2020/12/12 05:11:42;;;;;;;11.20;8.98;;;14.50;52.20;;;;;;5157903;27;20400;-81
2020/12/12 05:14:12;;;;;;;11.13;9.45;;;14.50;52.20;;;;;;5158550;27;20435;-80
2020/12/12 05:16:37;;;;;;;11.27;8.77;;;14.50;52.20;;;;;;5152469;27;20366;-80
2020/12/12 05:19:04;;;;;;;10.25;8.98;;;14.50;52.20;;;;;;5117269;28;20051;-80
2020/12/12 05:21:31;;;;;;;10.30;8.73;;;14.50;52.20;;;;;;5116962;27;20043;-81
2020/12/12 05:23:59;;;;;;;11.88;9.52;;;14.50;52.20;;;;;;5116551;28;20069;-81
2020/12/12 05:26:28;;;;;;;11.35;9.10;;;14.50;52.20;;;;;;5116672;27;20508;-79
2020/12/12 05:29:15;;;;;;;11.50;8.70;;;14.40;52.20;;;;;;5142196;27;20065;-81
2020/12/12 05:31:42;;;;;;;11.20;8.80;;;14.40;52.20;;;;;;5157492;27;20066;-80
2020/12/12 05:34:10;;;;;;;10.38;8.63;;;14.40;52.20;;;;;;5139507;27;20461;-79
2020/12/12 05:36:56;;;;;;;13.70;10.23;;;14.40;52.20;;;;;;5132543;27;20097;-79
2020/12/12 05:39:22;;;;;;;11.82;9.73;;;14.40;52.20;;;;;;5116757;27;20043;-81
2020/12/12 05:41:49;;;;;;;12.02;10.13;;;14.40;52.30;;;;;;5116844;28;20043;-80
2020/12/12 05:44:19;;;;;;;13.05;10.25;;;14.40;52.20;;;;;;5112817;27;20054;-79
2020/12/12 05:46:46;;;;;;;13.00;10.50;;;14.40;52.20;;;;;;5116397;28;20035;-81
2020/12/12 05:49:13;;;;;;;14.18;11.05;;;14.30;52.10;;;;;;5116676;28;20031;-80
2020/12/12 05:51:39;;;;;;;14.38;10.75;;;14.30;52.10;;;;;;5116212;28;20047;-80
2020/12/12 05:54:26;;;;;;;14.52;11.25;;;14.30;52.10;;;;;;5119477;27;20038;-80
2020/12/12 05:56:51;;;;;;;17.20;12.02;;;14.30;52.20;;;;;;5138418;27;20475;-81
2020/12/12 05:59:18;;;;;;;15.55;12.65;;;14.30;52.10;;;;;;5132162;27;20031;-80
2020/12/12 06:02:06;;;;;;;21.60;11.55;;;14.30;52.10;;;;;;5121584;27;20396;-80
2020/12/12 06:04:56;;;;;;;20.17;14.32;;;14.20;52.40;;;;;;5116478;27;20046;-85
2020/12/12 06:07:32;;;;;;;24.60;13.73;;;14.30;52.10;;;;;;5112299;28;20035;-78
2020/12/12 06:10:04;;;;;;;25.50;15.45;;;14.30;52.00;;;;;;5115351;28;20032;-86
2020/12/12 06:12:34;;;;;;;22.58;12.95;;;14.30;52.50;;;;;;5115525;28;20035;-81
2020/12/12 06:15:01;;;;;;;23.88;12.50;;;14.30;52.90;;;;;;5119969;27;20388;-77
2020/12/12 06:18:06;;;;;;;16.88;11.63;;;14.30;53.00;;;;;;5118642;27;20047;-79
2020/12/12 06:20:37;;;;;;;15.43;10.25;;;14.40;52.90;;;;;;5115449;28;20055;-82
2020/12/12 06:23:06;;;;;;;13.13;8.90;;;14.50;52.80;;;;;;5115385;28;20504;-80
2020/12/12 06:25:32;;;;;;;17.10;9.38;;;14.60;53.00;;;;;;5133622;27;20034;-77
2020/12/12 06:28:01;;;;;;;16.73;9.10;;;14.70;53.00;;;;;;5156746;27;20027;-80
2020/12/12 06:30:33;;;;;;;17.00;10.40;;;14.80;53.20;;;;;;5132832;27;20043;-78
2020/12/12 06:33:03;;;;;;;16.77;11.35;;;15.00;54.30;;;;;;5117897;27;20065;-81
2020/12/12 06:36:18;;;;;;;15.75;10.02;;;15.10;54.60;;;;;;5106432;28;20039;-78
2020/12/12 06:38:47;;;;;;;22.27;14.38;;;15.10;54.90;;;;;;5135927;28;20039;-78
2020/12/12 06:41:32;;;;;;;17.52;12.20;;;15.20;56.40;;;;;;5145963;27;20031;-78
2020/12/12 06:43:58;;;;;;;16.02;11.20;;;15.30;56.80;;;;;;5130223;27;20377;-79
2020/12/12 06:46:51;;;;;;;23.55;16.38;;;15.40;56.10;;;;;;5095770;28;20120;-80
2020/12/12 06:49:41;;;;;;;23.95;14.95;;;15.50;58.20;;;;;;5069526;28;20050;-81
2020/12/12 06:52:07;;;;;;;19.77;12.70;;;15.50;57.90;;;;;;5126502;28;20084;-78
2020/12/12 06:54:35;;;;;;;17.85;13.23;;;15.50;57.40;;;;;;5123297;28;20043;-79
2020/12/12 06:57:00;;;;;;;19.75;14.57;;;15.60;57.70;;;;;;5133999;28;20055;-81
2020/12/12 06:59:27;;;;;;;20.88;15.18;;;15.70;58.30;;;;;;5133885;28;20070;-81
2020/12/12 07:01:58;;;;;;;21.40;14.88;;;15.70;58.30;;;;;;5088961;28;20039;-82
2020/12/12 07:04:28;;;;;;;19.20;12.18;;;15.80;58.30;;;;;;5113862;28;20085;-79
2020/12/12 07:07:08;;;;;;;15.85;12.10;;;15.80;58.10;;;;;;5102048;28;20109;-84
2020/12/12 07:09:35;;;;;;;19.40;13.35;;;15.90;58.00;;;;;;5119471;28;20032;-81
2020/12/12 07:12:21;;;;;;;19.88;14.45;;;15.90;57.80;;;;;;5105982;28;20035;-80
2020/12/12 07:14:47;;;;;;;20.55;15.55;;;16.00;57.70;;;;;;5133773;28;20363;-79
2020/12/12 07:17:13;;;;;;;18.77;13.45;;;16.00;57.10;;;;;;5135635;27;20070;-78
2020/12/12 07:19:40;;;;;;;19.48;13.63;;;16.00;57.00;;;;;;5132906;27;20031;-79
2020/12/12 07:22:30;;;;;;;18.00;12.13;;;16.00;56.70;;;;;;5107031;27;20039;-79
2020/12/12 07:24:57;;;;;;;14.82;11.95;;;16.00;56.30;;;;;;5119865;27;20035;-80
2020/12/12 07:27:43;;;;;;;16.60;12.30;;;16.00;56.00;;;;;;5097871;28;20349;-80
2020/12/12 07:30:09;;;;;;;15.68;10.88;;;16.00;55.60;;;;;;5129682;27;20027;-80
2020/12/12 07:32:35;;;;;;;16.35;10.00;;;16.00;55.60;;;;;;5137405;27;20448;-82
2020/12/12 07:35:01;;;;;;;13.63;9.20;;;16.00;55.50;;;;;;5119726;27;20035;-81
2020/12/12 07:37:27;;;;;;;13.55;8.98;;;16.10;55.40;;;;;;5095579;28;20410;-83
2020/12/12 07:39:53;;;;;;;13.05;8.25;;;16.10;55.40;;;;;;5116960;27;20032;-78
2020/12/12 07:42:23;;;;;;;11.38;7.47;;;16.20;55.30;;;;;;5086317;27;20100;-80
2020/12/12 07:45:00;;;;;;;14.50;7.82;;;16.30;55.30;;;;;;5115596;27;20052;-82
2020/12/12 07:47:26;;;;;;;13.38;7.40;;;16.50;55.30;;;;;;5117891;28;20078;-83
2020/12/12 07:50:12;;;;;;;14.82;7.18;;;16.50;55.10;;;;;;5088065;28;20039;-81
2020/12/12 07:52:41;;;;;;;13.35;6.03;;;16.60;55.10;;;;;;5115313;28;20031;-82
2020/12/12 07:55:11;;;;;;;12.90;6.47;;;16.60;55.00;;;;;;5096847;28;20054;-82
2020/12/12 07:57:39;;;;;;;12.00;6.47;;;16.70;55.00;;;;;;5097986;28;20451;-83
2020/12/12 08:00:10;;;;;;;11.73;6.60;;;16.70;54.90;;;;;;5116726;28;20027;-81
2020/12/12 08:02:36;;;;;;;12.70;5.63;;;16.80;54.90;;;;;;5116230;28;20123;-80
2020/12/12 08:05:05;;;;;;;18.83;5.70;;;16.80;54.70;;;;;;5116095;28;20110;-81
2020/12/12 08:07:51;;;;;;;11.70;5.90;;;16.90;54.80;;;;;;5100347;28;20082;-83
2020/12/12 08:10:17;;;;;;;12.23;5.78;;;16.90;54.70;;;;;;5099192;28;20047;-82
2020/12/12 08:12:43;;;;;;;12.73;5.25;;;16.90;54.80;;;;;;5116828;28;20036;-82
2020/12/12 08:15:15;;;;;;;12.55;5.35;;;17.00;54.90;;;;;;5115535;28;20028;-83
2020/12/12 08:17:41;;;;;;;10.02;5.50;;;17.00;54.80;;;;;;5116375;28;20032;-81
2020/12/12 08:20:17;;;;;;;14.93;5.72;;;17.10;54.90;;;;;;5116430;28;20096;-82
2020/12/12 08:23:04;;;;;;;10.30;4.70;;;17.10;54.90;;;;;;5084432;28;20035;-82
2020/12/12 08:25:30;;;;;;;13.43;5.50;;;17.20;54.80;;;;;;5097637;28;20050;-83
2020/12/12 08:27:56;;;;;;;9.85;5.13;;;17.20;54.70;;;;;;5116565;28;20104;-80
2020/12/12 08:30:24;;;;;;;10.88;5.07;;;17.30;54.40;;;;;;5115752;28;20500;-80
2020/12/12 08:32:50;;;;;;;11.93;5.75;;;17.40;54.40;;;;;;5113060;28;20436;-82
2020/12/12 08:35:21;;;;;;;12.30;5.40;;;17.40;54.30;;;;;;5116929;28;20126;-81
2020/12/12 08:38:12;;;;;;;15.27;5.88;;;17.40;54.20;;;;;;5084205;28;20126;-83
2020/12/12 08:40:58;;;;;;;12.65;5.45;;;17.40;54.20;;;;;;5085885;28;20122;-83
2020/12/12 08:43:44;;;;;;;12.88;5.05;;;17.40;54.20;;;;;;5087868;28;20036;-83
2020/12/12 08:46:14;;;;;;;12.93;5.10;;;17.40;54.30;;;;;;5114732;28;20065;-82
2020/12/12 08:49:00;;;;;;;15.60;6.03;;;17.40;54.30;;;;;;5100714;28;20031;-81
2020/12/12 08:51:30;;;;;;;17.95;6.07;;;17.40;54.30;;;;;;5116619;28;20449;-83
2020/12/12 08:53:58;;;;;;;18.48;6.45;;;17.40;54.40;;;;;;5114275;28;20040;-81
2020/12/12 08:56:27;;;;;;;21.70;6.95;;;17.40;54.70;;;;;;5115009;28;20024;-84
2020/12/12 08:58:57;;;;;;;18.05;7.13;;;17.40;54.70;;;;;;5114612;28;20097;-84
2020/12/12 09:01:30;;;;;;;25.45;7.40;;;17.40;54.50;;;;;;5114282;28;21473;-82
2020/12/12 09:04:20;;;;;;;21.40;7.65;;;17.40;54.70;;;;;;5100672;28;20043;-80
2020/12/12 09:06:47;;;;;;;16.25;6.13;;;17.50;54.70;;;;;;5115672;28;20076;-83
2020/12/12 09:09:30;;;;;;;22.83;7.22;;;17.40;54.50;;;;;;5116620;27;20028;-83
2020/12/12 09:12:16;;;;;;;18.85;6.93;;;17.50;54.50;;;;;;5115591;28;20448;-82
2020/12/12 09:14:42;;;;;;;14.20;6.57;;;17.50;54.40;;;;;;5114723;28;20033;-82
2020/12/12 09:17:28;;;;;;;12.07;6.75;;;17.50;54.40;;;;;;5114443;28;20440;-80
2020/12/12 09:20:14;;;;;;;14.65;6.43;;;17.40;54.40;;;;;;5100976;28;20047;-81
2020/12/12 09:22:40;;;;;;;23.35;8.73;;;17.50;54.40;;;;;;5115819;28;20489;-82
2020/12/12 09:25:09;;;;;;;21.92;7.15;;;17.40;54.40;;;;;;5098380;28;20050;-83
2020/12/12 09:27:55;;;;;;;23.50;7.50;;;17.40;54.40;;;;;;5101776;28;20406;-84
2020/12/12 09:30:21;;;;;;;19.63;8.00;;;17.40;54.40;;;;;;5114871;28;20028;-82
2020/12/12 09:32:46;;;;;;;17.02;7.85;;;17.30;54.40;;;;;;5115080;28;20454;-82
2020/12/12 09:35:12;;;;;;;19.40;7.55;;;17.30;54.30;;;;;;5115842;28;20118;-82
2020/12/12 09:37:58;;;;;;;13.55;6.53;;;17.30;54.20;;;;;;5101603;28;20122;-81
2020/12/12 09:40:24;;;;;;;16.58;6.10;;;17.30;53.90;;;;;;5114379;28;20123;-82
2020/12/12 09:42:50;;;;;;;15.18;7.15;;;17.40;53.80;;;;;;5115484;28;20036;-81
2020/12/12 09:45:36;;;;;;;14.02;6.85;;;17.40;53.60;;;;;;5106983;27;20054;-84
2020/12/12 09:48:24;;;;;;;12.38;6.72;;;17.40;53.40;;;;;;5121701;27;20462;-82
2020/12/12 09:50:50;;;;;;;13.98;6.20;;;17.40;53.20;;;;;;5101817;27;20039;-85
2020/12/12 09:53:36;;;;;;;15.65;7.47;;;17.50;53.20;;;;;;5107149;27;20434;-82
2020/12/12 09:56:22;;;;;;;11.57;7.20;;;17.50;53.00;;;;;;5108426;27;20069;-82
2020/12/12 09:58:48;;;;;;;10.45;5.88;;;17.50;52.80;;;;;;5101714;27;20051;-82
2020/12/12 10:01:15;;;;;;;10.60;6.50;;;17.50;52.60;;;;;;5118204;27;20034;-83
2020/12/12 10:03:41;;;;;;;9.90;6.00;;;17.50;52.60;;;;;;5101882;27;20039;-81
2020/12/12 10:06:11;;;;;;;11.57;6.63;;;17.60;53.20;;;;;;5117909;27;20381;-84
2020/12/12 10:08:57;;;;;;;12.30;7.07;;;17.50;52.40;;;;;;5107287;27;20078;-82
2020/12/12 10:11:25;;;;;;;11.40;6.07;;;17.60;52.20;;;;;;5101646;27;20112;-81
2020/12/12 10:14:11;;;;;;;12.60;7.03;;;17.60;52.80;;;;;;5120657;27;20074;-84
2020/12/12 10:16:37;;;;;;;10.13;6.57;;;17.60;52.10;;;;;;5117492;27;20481;-84
2020/12/12 10:19:03;;;;;;;12.60;7.50;;;17.60;52.10;;;;;;5103305;28;20073;-81
2020/12/12 10:21:49;;;;;;;12.02;6.82;;;17.60;52.10;;;;;;5098660;28;20036;-80
2020/12/12 10:24:17;;;;;;;11.98;7.18;;;17.60;52.30;;;;;;5095611;28;20032;-77
2020/12/12 10:27:03;;;;;;;11.02;7.35;;;17.50;52.30;;;;;;5099822;28;20038;-79
2020/12/12 10:29:29;;;;;;;14.50;7.82;;;17.50;53.10;;;;;;5113317;28;20043;-77
2020/12/12 10:31:55;;;;;;;13.95;7.18;;;17.40;52.60;;;;;;5109101;28;20048;-76
2020/12/12 10:34:21;;;;;;;14.30;7.55;;;17.40;52.80;;;;;;5114487;28;20059;-77
2020/12/12 10:36:52;;;;;;;11.55;8.70;;;17.40;52.80;;;;;;5110221;28;20040;-78
2020/12/12 10:42:23;;;;;;;18.13;10.27;;;17.30;52.90;;;;;;5114828;28;20164;-78
2020/12/12 10:44:48;;;;;;;16.60;10.43;;;17.30;52.90;;;;;;5108516;28;20123;-81
2020/12/12 10:47:14;;;;;;;15.45;9.02;;;17.30;53.00;;;;;;5114140;28;20051;-80
2020/12/12 10:49:40;;;;;;;18.95;9.75;;;17.30;53.10;;;;;;5114825;28;20146;-82
2020/12/12 10:52:06;;;;;;;19.13;9.50;;;17.30;53.10;;;;;;5118065;28;20122;-80
2020/12/12 10:54:52;;;;;;;18.20;9.07;;;17.30;53.10;;;;;;5101327;28;20126;-79
2020/12/12 10:57:38;;;;;;;19.80;8.77;;;17.40;53.10;;;;;;5083938;28;20436;-80
2020/12/12 11:00:05;;;;;;;13.85;8.02;;;17.40;52.90;;;;;;5101246;28;20058;-81
2020/12/12 11:02:52;;;;;;;13.50;8.15;;;17.40;52.80;;;;;;5089908;28;20036;-79
2020/12/12 11:05:18;;;;;;;12.88;7.82;;;17.40;52.70;;;;;;5119480;28;20119;-81
2020/12/12 11:08:04;;;;;;;16.08;8.88;;;17.40;52.60;;;;;;5104355;28;20050;-80
2020/12/12 11:10:30;;;;;;;15.55;8.52;;;17.40;52.70;;;;;;5119608;28;20122;-78
2020/12/12 11:13:17;;;;;;;14.95;9.82;;;17.40;52.60;;;;;;5104001;28;20065;-83
2020/12/12 11:15:42;;;;;;;15.02;10.45;;;17.40;52.50;;;;;;5100972;28;20491;-80
2020/12/12 11:18:28;;;;;;;18.55;11.45;;;17.30;52.30;;;;;;5089965;28;20100;-82
2020/12/12 11:20:57;;;;;;;15.43;10.52;;;17.20;52.00;;;;;;5101666;28;20409;-80
2020/12/12 11:23:23;;;;;;;17.17;11.18;;;17.20;52.20;;;;;;5082769;28;20355;-77
2020/12/12 11:26:09;;;;;;;19.77;10.45;;;17.20;52.20;;;;;;5101467;28;20055;-77
2020/12/12 11:28:55;;;;;;;18.70;9.90;;;17.30;52.30;;;;;;5100323;28;20077;-79
2020/12/12 11:31:23;;;;;;;26.10;9.95;;;17.30;52.30;;;;;;5118192;28;20408;-79
2020/12/12 11:34:29;;;;;;;23.00;10.13;;;17.40;52.40;;;;;;5116666;28;20023;-79
2020/12/12 11:42:53;;;;;;;32.92;9.02;;;17.50;53.10;;;;;;5117573;28;20027;-82
2020/12/12 11:47:42;;;;;;;19.67;7.88;;;17.60;53.50;;;;;;5119091;27;20316;-81
2020/12/12 11:50:29;;;;;;;25.40;8.32;;;17.70;53.60;;;;;;5118167;27;20047;-82
2020/12/12 11:52:56;;;;;;;21.08;8.15;;;17.70;53.50;;;;;;5121410;27;20055;-82
2020/12/12 11:55:27;;;;;;;23.88;9.18;;;17.70;53.70;;;;;;5091534;27;20031;-85
2020/12/12 11:57:53;;;;;;;19.80;7.60;;;17.70;53.80;;;;;;5127245;27;20050;-81
2020/12/12 12:00:20;;;;;;;23.60;8.10;;;17.80;54.00;;;;;;5138631;27;20035;-81
2020/12/12 12:02:46;;;;;;;18.27;7.88;;;17.70;54.00;;;;;;5115903;27;20031;-82
2020/12/12 12:05:12;;;;;;;17.13;7.30;;;17.80;54.00;;;;;;5118159;28;20040;-82
2020/12/12 12:07:47;;;;;;;15.68;7.28;;;17.80;54.10;;;;;;5118507;28;20048;-82
2020/12/12 12:10:34;;;;;;;13.52;7.13;;;17.80;54.20;;;;;;5118115;28;20032;-83
2020/12/12 12:13:00;;;;;;;16.67;7.10;;;17.80;54.20;;;;;;5123005;27;20057;-82
2020/12/12 12:15:26;;;;;;;14.80;6.50;;;17.90;54.20;;;;;;5124819;27;20462;-82
2020/12/12 12:17:52;;;;;;;15.80;7.90;;;17.90;54.80;;;;;;5138371;27;20117;-82
2020/12/12 12:20:21;;;;;;;14.52;6.70;;;17.90;54.20;;;;;;5133981;27;20032;-85
2020/12/12 12:22:47;;;;;;;14.15;6.82;;;17.90;54.20;;;;;;5136754;27;20053;-80
2020/12/12 12:25:13;;;;;;;14.32;6.75;;;18.00;54.10;;;;;;5118541;27;20436;-82
2020/12/12 12:27:41;;;;;;;16.63;7.05;;;18.00;54.10;;;;;;5100441;28;20115;-81
2020/12/12 12:30:10;;;;;;;13.73;6.78;;;18.00;54.10;;;;;;5115368;27;20046;-81
2020/12/12 12:32:36;;;;;;;10.63;6.38;;;18.00;54.00;;;;;;5102576;28;20027;-81
2020/12/12 12:35:21;;;;;;;11.27;6.20;;;18.00;54.00;;;;;;5085783;27;20055;-81
2020/12/12 12:37:47;;;;;;;12.45;7.47;;;18.00;54.10;;;;;;5105087;27;20031;-83
2020/12/12 12:40:13;;;;;;;12.27;7.15;;;18.00;54.10;;;;;;5110636;27;20058;-82
2020/12/12 12:42:59;;;;;;;13.27;7.70;;;17.90;54.10;;;;;;5088238;28;20422;-81
2020/12/12 12:45:25;;;;;;;16.83;6.75;;;17.90;54.10;;;;;;5106515;27;20051;-81
2020/12/12 12:47:51;;;;;;;16.63;7.07;;;17.90;54.10;;;;;;5118309;28;20042;-81
2020/12/12 12:50:37;;;;;;;16.02;8.27;;;17.90;54.20;;;;;;5079261;28;20040;-81
2020/12/12 12:53:06;;;;;;;13.63;8.02;;;17.90;54.40;;;;;;5107429;27;20493;-82
2020/12/12 12:55:32;;;;;;;12.13;7.30;;;17.90;54.30;;;;;;5117104;28;20035;-81
2020/12/12 12:57:58;;;;;;;10.40;7.03;;;17.90;54.90;;;;;;5098530;28;20058;-81
2020/12/12 13:00:26;;;;;;;13.02;7.10;;;17.90;54.10;;;;;;5115987;28;20344;-82
2020/12/12 13:02:52;;;;;;;13.10;7.07;;;18.00;54.00;;;;;;5115408;28;20044;-80
2020/12/12 13:05:41;;;;;;;15.68;7.22;;;18.00;53.80;;;;;;5096936;28;20524;-81
2020/12/12 13:08:06;;;;;;;9.73;6.63;;;18.10;53.70;;;;;;5116428;28;20036;-80
2020/12/12 13:10:32;;;;;;;9.80;6.45;;;18.10;53.70;;;;;;5116770;27;20047;-80
2020/12/12 13:12:58;;;;;;;12.10;6.78;;;18.20;53.60;;;;;;5117110;28;20112;-81
2020/12/12 13:15:26;;;;;;;12.25;6.72;;;18.20;53.50;;;;;;5115827;28;20063;-82